sensor_id;sensor_type;location;lat;lon;timestamp;P1;durP1;ratioP1;P2;durP2;ratioP2
11541;SDS011;5827;49.482;7.716;2022-08-19T00:01:35;26.57;;;24.00;;
11541;SDS011;5827;49.482;7.716;2022-08-19T00:03:37;26.97;;;24.17;;
11541;SDS011;5827;49.482;7.716;2022-08-19T00:05:39;25.50;;;22.93;;
11541;SDS011;5827;49.482;7.716;2022-08-19T00:07:42;27.17;;;24.43;;
11541;SDS011;5827;49.482;7.716;2022-08-19T00:09:45;24.97;;;22.57;;
11541;SDS011;5827;49.482;7.716;2022-08-19T00:11:47;25.77;;;23.37;;
11541;SDS011;5827;49.482;7.716;2022-08-19T00:13:48;26.83;;;24.23;;
11541;SDS011;5827;49.482;7.716;2022-08-19T00:15:52;26.77;;;24.13;;
11541;SDS011;5827;49.482;7.716;2022-08-19T00:17:53;26.07;;;23.63;;
11541;SDS011;5827;49.482;7.716;2022-08-19T00:19:55;26.13;;;23.63;;
11541;SDS011;5827;49.482;7.716;2022-08-19T00:21:56;25.67;;;23.17;;
11541;SDS011;5827;49.482;7.716;2022-08-19T00:23:58;25.30;;;22.63;;
11541;SDS011;5827;49.482;7.716;2022-08-19T00:26:00;24.90;;;22.53;;
11541;SDS011;5827;49.482;7.716;2022-08-19T00:28:02;25.57;;;23.07;;
11541;SDS011;5827;49.482;7.716;2022-08-19T00:30:05;26.47;;;23.67;;
11541;SDS011;5827;49.482;7.716;2022-08-19T00:32:09;25.93;;;23.33;;
11541;SDS011;5827;49.482;7.716;2022-08-19T00:34:11;26.13;;;23.53;;
11541;SDS011;5827;49.482;7.716;2022-08-19T00:36:13;25.90;;;23.40;;
11541;SDS011;5827;49.482;7.716;2022-08-19T00:38:15;26.90;;;24.20;;
11541;SDS011;5827;49.482;7.716;2022-08-19T00:40:17;26.70;;;24.03;;
11541;SDS011;5827;49.482;7.716;2022-08-19T00:42:19;25.53;;;22.83;;
11541;SDS011;5827;49.482;7.716;2022-08-19T00:44:23;26.43;;;23.83;;
11541;SDS011;5827;49.482;7.716;2022-08-19T00:46:28;24.90;;;22.50;;
11541;SDS011;5827;49.482;7.716;2022-08-19T00:48:32;26.10;;;23.50;;
11541;SDS011;5827;49.482;7.716;2022-08-19T00:50:35;28.37;;;24.77;;
11541;SDS011;5827;49.482;7.716;2022-08-19T00:52:37;26.00;;;23.40;;
11541;SDS011;5827;49.482;7.716;2022-08-19T00:54:46;25.33;;;23.13;;
11541;SDS011;5827;49.482;7.716;2022-08-19T00:56:49;25.60;;;23.10;;
11541;SDS011;5827;49.482;7.716;2022-08-19T00:58:51;25.23;;;22.73;;
11541;SDS011;5827;49.482;7.716;2022-08-19T01:00:55;25.50;;;23.00;;
11541;SDS011;5827;49.482;7.716;2022-08-19T01:02:56;25.23;;;22.80;;
11541;SDS011;5827;49.482;7.716;2022-08-19T01:05:00;25.53;;;23.17;;
11541;SDS011;5827;49.482;7.716;2022-08-19T01:07:05;25.57;;;23.03;;
11541;SDS011;5827;49.482;7.716;2022-08-19T01:09:08;26.73;;;23.97;;
11541;SDS011;5827;49.482;7.716;2022-08-19T01:11:10;25.67;;;23.17;;
11541;SDS011;5827;49.482;7.716;2022-08-19T01:13:13;24.13;;;21.93;;
11541;SDS011;5827;49.482;7.716;2022-08-19T01:15:17;26.93;;;24.33;;
11541;SDS011;5827;49.482;7.716;2022-08-19T01:17:26;26.67;;;23.93;;
11541;SDS011;5827;49.482;7.716;2022-08-19T01:19:29;24.87;;;22.43;;
11541;SDS011;5827;49.482;7.716;2022-08-19T01:21:37;25.30;;;22.80;;
11541;SDS011;5827;49.482;7.716;2022-08-19T01:23:47;25.17;;;22.87;;
11541;SDS011;5827;49.482;7.716;2022-08-19T01:25:49;26.00;;;23.57;;
11541;SDS011;5827;49.482;7.716;2022-08-19T01:27:53;26.17;;;23.70;;
11541;SDS011;5827;49.482;7.716;2022-08-19T01:29:55;25.93;;;23.43;;
11541;SDS011;5827;49.482;7.716;2022-08-19T01:31:57;26.13;;;23.40;;
11541;SDS011;5827;49.482;7.716;2022-08-19T01:34:01;24.17;;;21.87;;
11541;SDS011;5827;49.482;7.716;2022-08-19T01:36:04;24.73;;;22.50;;
11541;SDS011;5827;49.482;7.716;2022-08-19T01:38:22;24.07;;;21.87;;
11541;SDS011;5827;49.482;7.716;2022-08-19T01:40:28;24.00;;;21.77;;
11541;SDS011;5827;49.482;7.716;2022-08-19T01:42:31;25.90;;;23.33;;
11541;SDS011;5827;49.482;7.716;2022-08-19T01:44:32;24.57;;;21.87;;
11541;SDS011;5827;49.482;7.716;2022-08-19T01:46:36;26.03;;;23.53;;
11541;SDS011;5827;49.482;7.716;2022-08-19T01:48:39;24.60;;;22.27;;
11541;SDS011;5827;49.482;7.716;2022-08-19T01:50:42;24.37;;;22.07;;
11541;SDS011;5827;49.482;7.716;2022-08-19T01:52:44;24.77;;;22.23;;
11541;SDS011;5827;49.482;7.716;2022-08-19T01:54:46;24.57;;;22.27;;
11541;SDS011;5827;49.482;7.716;2022-08-19T01:56:49;22.63;;;20.70;;
11541;SDS011;5827;49.482;7.716;2022-08-19T01:58:52;23.97;;;21.77;;
11541;SDS011;5827;49.482;7.716;2022-08-19T02:00:57;25.03;;;22.80;;
11541;SDS011;5827;49.482;7.716;2022-08-19T02:02:59;24.23;;;21.93;;
11541;SDS011;5827;49.482;7.716;2022-08-19T02:05:01;22.43;;;20.30;;
11541;SDS011;5827;49.482;7.716;2022-08-19T02:07:02;23.83;;;21.60;;
11541;SDS011;5827;49.482;7.716;2022-08-19T02:09:04;23.73;;;21.30;;
11541;SDS011;5827;49.482;7.716;2022-08-19T02:11:07;24.17;;;21.90;;
11541;SDS011;5827;49.482;7.716;2022-08-19T02:13:10;22.30;;;20.03;;
11541;SDS011;5827;49.482;7.716;2022-08-19T02:15:13;24.67;;;22.30;;
11541;SDS011;5827;49.482;7.716;2022-08-19T02:17:15;21.87;;;19.93;;
11541;SDS011;5827;49.482;7.716;2022-08-19T02:19:16;22.00;;;20.00;;
11541;SDS011;5827;49.482;7.716;2022-08-19T02:21:18;21.20;;;19.20;;
11541;SDS011;5827;49.482;7.716;2022-08-19T02:23:21;21.90;;;19.87;;
11541;SDS011;5827;49.482;7.716;2022-08-19T02:25:23;21.60;;;19.60;;
11541;SDS011;5827;49.482;7.716;2022-08-19T02:27:24;20.63;;;18.83;;
11541;SDS011;5827;49.482;7.716;2022-08-19T02:29:27;19.13;;;17.47;;
11541;SDS011;5827;49.482;7.716;2022-08-19T02:31:29;19.83;;;17.93;;
11541;SDS011;5827;49.482;7.716;2022-08-19T02:33:31;19.57;;;17.90;;
11541;SDS011;5827;49.482;7.716;2022-08-19T02:35:32;20.47;;;18.67;;
11541;SDS011;5827;49.482;7.716;2022-08-19T02:37:34;19.17;;;17.40;;
11541;SDS011;5827;49.482;7.716;2022-08-19T02:39:53;19.97;;;18.17;;
11541;SDS011;5827;49.482;7.716;2022-08-19T02:41:54;19.33;;;17.63;;
11541;SDS011;5827;49.482;7.716;2022-08-19T02:43:56;19.43;;;17.57;;
11541;SDS011;5827;49.482;7.716;2022-08-19T02:46:10;18.80;;;16.97;;
11541;SDS011;5827;49.482;7.716;2022-08-19T02:48:13;20.27;;;18.23;;
11541;SDS011;5827;49.482;7.716;2022-08-19T02:50:16;19.60;;;17.80;;
11541;SDS011;5827;49.482;7.716;2022-08-19T02:52:18;20.63;;;18.57;;
11541;SDS011;5827;49.482;7.716;2022-08-19T02:54:20;22.30;;;20.30;;
11541;SDS011;5827;49.482;7.716;2022-08-19T02:56:22;19.80;;;17.90;;
11541;SDS011;5827;49.482;7.716;2022-08-19T02:58:24;20.17;;;18.27;;
11541;SDS011;5827;49.482;7.716;2022-08-19T03:00:26;19.37;;;17.67;;
11541;SDS011;5827;49.482;7.716;2022-08-19T03:02:29;19.00;;;17.40;;
11541;SDS011;5827;49.482;7.716;2022-08-19T03:04:31;20.13;;;18.27;;
11541;SDS011;5827;49.482;7.716;2022-08-19T03:06:34;20.10;;;18.30;;
11541;SDS011;5827;49.482;7.716;2022-08-19T03:08:38;19.40;;;17.63;;
11541;SDS011;5827;49.482;7.716;2022-08-19T03:10:41;22.70;;;20.53;;
11541;SDS011;5827;49.482;7.716;2022-08-19T03:12:45;22.23;;;20.23;;
11541;SDS011;5827;49.482;7.716;2022-08-19T03:14:46;24.13;;;21.93;;
11541;SDS011;5827;49.482;7.716;2022-08-19T03:16:51;21.83;;;19.83;;
11541;SDS011;5827;49.482;7.716;2022-08-19T03:18:55;20.97;;;19.13;;
11541;SDS011;5827;49.482;7.716;2022-08-19T03:20:59;21.53;;;19.53;;
11541;SDS011;5827;49.482;7.716;2022-08-19T03:23:01;21.63;;;19.57;;
11541;SDS011;5827;49.482;7.716;2022-08-19T03:25:03;21.90;;;19.80;;
11541;SDS011;5827;49.482;7.716;2022-08-19T03:27:05;22.33;;;20.43;;
11541;SDS011;5827;49.482;7.716;2022-08-19T03:29:07;22.90;;;20.77;;
11541;SDS011;5827;49.482;7.716;2022-08-19T03:31:10;22.57;;;20.47;;
11541;SDS011;5827;49.482;7.716;2022-08-19T03:33:13;21.33;;;19.43;;
11541;SDS011;5827;49.482;7.716;2022-08-19T03:35:16;22.73;;;20.70;;
11541;SDS011;5827;49.482;7.716;2022-08-19T03:37:20;22.37;;;20.37;;
11541;SDS011;5827;49.482;7.716;2022-08-19T03:39:22;21.77;;;19.87;;
11541;SDS011;5827;49.482;7.716;2022-08-19T03:41:27;24.03;;;21.23;;
11541;SDS011;5827;49.482;7.716;2022-08-19T03:43:30;22.70;;;20.57;;
11541;SDS011;5827;49.482;7.716;2022-08-19T03:45:31;23.33;;;20.93;;
11541;SDS011;5827;49.482;7.716;2022-08-19T03:47:33;23.30;;;21.10;;
11541;SDS011;5827;49.482;7.716;2022-08-19T03:49:35;21.70;;;19.73;;
11541;SDS011;5827;49.482;7.716;2022-08-19T03:51:38;24.23;;;21.93;;
11541;SDS011;5827;49.482;7.716;2022-08-19T03:53:39;24.17;;;21.90;;
11541;SDS011;5827;49.482;7.716;2022-08-19T03:55:41;23.27;;;21.07;;
11541;SDS011;5827;49.482;7.716;2022-08-19T03:57:42;23.30;;;21.10;;
11541;SDS011;5827;49.482;7.716;2022-08-19T03:59:45;24.13;;;21.80;;
11541;SDS011;5827;49.482;7.716;2022-08-19T04:01:46;23.17;;;21.07;;
11541;SDS011;5827;49.482;7.716;2022-08-19T04:03:48;24.03;;;21.80;;
11541;SDS011;5827;49.482;7.716;2022-08-19T04:05:50;24.00;;;21.77;;
11541;SDS011;5827;49.482;7.716;2022-08-19T04:07:53;24.87;;;22.10;;
11541;SDS011;5827;49.482;7.716;2022-08-19T04:09:55;22.23;;;19.53;;
11541;SDS011;5827;49.482;7.716;2022-08-19T04:11:56;22.23;;;19.87;;
11541;SDS011;5827;49.482;7.716;2022-08-19T04:13:59;22.50;;;20.30;;
11541;SDS011;5827;49.482;7.716;2022-08-19T04:16:01;22.57;;;20.37;;
11541;SDS011;5827;49.482;7.716;2022-08-19T04:18:04;25.67;;;23.17;;
11541;SDS011;5827;49.482;7.716;2022-08-19T04:20:08;25.83;;;23.47;;
11541;SDS011;5827;49.482;7.716;2022-08-19T04:22:10;24.77;;;22.57;;
11541;SDS011;5827;49.482;7.716;2022-08-19T04:24:13;24.80;;;22.47;;
11541;SDS011;5827;49.482;7.716;2022-08-19T04:26:16;24.67;;;22.27;;
11541;SDS011;5827;49.482;7.716;2022-08-19T04:28:19;23.90;;;21.60;;
11541;SDS011;5827;49.482;7.716;2022-08-19T04:30:22;25.07;;;22.87;;
11541;SDS011;5827;49.482;7.716;2022-08-19T04:32:23;25.13;;;22.53;;
11541;SDS011;5827;49.482;7.716;2022-08-19T04:34:25;25.60;;;23.10;;
11541;SDS011;5827;49.482;7.716;2022-08-19T04:36:30;24.37;;;21.97;;
11541;SDS011;5827;49.482;7.716;2022-08-19T04:38:34;25.60;;;22.90;;
11541;SDS011;5827;49.482;7.716;2022-08-19T04:40:40;24.10;;;21.80;;
11541;SDS011;5827;49.482;7.716;2022-08-19T04:43:00;23.77;;;21.43;;
11541;SDS011;5827;49.482;7.716;2022-08-19T04:45:02;24.90;;;22.40;;
11541;SDS011;5827;49.482;7.716;2022-08-19T04:47:05;23.70;;;21.50;;
11541;SDS011;5827;49.482;7.716;2022-08-19T04:49:07;23.70;;;21.40;;
11541;SDS011;5827;49.482;7.716;2022-08-19T04:51:09;22.47;;;20.50;;
11541;SDS011;5827;49.482;7.716;2022-08-19T04:53:13;22.37;;;20.33;;
11541;SDS011;5827;49.482;7.716;2022-08-19T04:55:15;23.70;;;21.50;;
11541;SDS011;5827;49.482;7.716;2022-08-19T04:57:19;23.40;;;21.23;;
11541;SDS011;5827;49.482;7.716;2022-08-19T04:59:21;23.70;;;21.50;;
11541;SDS011;5827;49.482;7.716;2022-08-19T05:01:23;24.87;;;22.43;;
11541;SDS011;5827;49.482;7.716;2022-08-19T05:03:26;24.87;;;22.57;;
11541;SDS011;5827;49.482;7.716;2022-08-19T05:05:31;25.07;;;22.60;;
11541;SDS011;5827;49.482;7.716;2022-08-19T05:07:32;24.97;;;22.63;;
11541;SDS011;5827;49.482;7.716;2022-08-19T05:09:34;24.23;;;21.97;;
11541;SDS011;5827;49.482;7.716;2022-08-19T05:11:36;26.73;;;23.63;;
11541;SDS011;5827;49.482;7.716;2022-08-19T05:13:40;25.93;;;23.33;;
11541;SDS011;5827;49.482;7.716;2022-08-19T05:15:42;26.53;;;23.77;;
11541;SDS011;5827;49.482;7.716;2022-08-19T05:17:45;26.33;;;23.80;;
11541;SDS011;5827;49.482;7.716;2022-08-19T05:20:07;24.00;;;21.60;;
11541;SDS011;5827;49.482;7.716;2022-08-19T05:22:27;24.90;;;22.33;;
11541;SDS011;5827;49.482;7.716;2022-08-19T05:24:36;25.13;;;22.53;;
11541;SDS011;5827;49.482;7.716;2022-08-19T05:26:38;22.97;;;20.77;;
11541;SDS011;5827;49.482;7.716;2022-08-19T05:28:42;20.93;;;19.03;;
11541;SDS011;5827;49.482;7.716;2022-08-19T05:30:44;20.30;;;18.20;;
11541;SDS011;5827;49.482;7.716;2022-08-19T05:32:45;19.83;;;17.93;;
11541;SDS011;5827;49.482;7.716;2022-08-19T05:34:47;19.20;;;17.27;;
11541;SDS011;5827;49.482;7.716;2022-08-19T05:36:49;19.47;;;17.50;;
11541;SDS011;5827;49.482;7.716;2022-08-19T05:38:56;20.40;;;18.30;;
11541;SDS011;5827;49.482;7.716;2022-08-19T05:40:58;20.13;;;18.10;;
11541;SDS011;5827;49.482;7.716;2022-08-19T05:43:00;20.57;;;18.67;;
11541;SDS011;5827;49.482;7.716;2022-08-19T05:45:03;19.70;;;17.90;;
11541;SDS011;5827;49.482;7.716;2022-08-19T05:47:05;19.30;;;17.50;;
11541;SDS011;5827;49.482;7.716;2022-08-19T05:49:09;17.63;;;16.03;;
11541;SDS011;5827;49.482;7.716;2022-08-19T05:51:10;18.30;;;16.47;;
11541;SDS011;5827;49.482;7.716;2022-08-19T05:53:13;20.57;;;18.67;;
11541;SDS011;5827;49.482;7.716;2022-08-19T05:55:16;20.53;;;18.60;;
11541;SDS011;5827;49.482;7.716;2022-08-19T05:57:20;18.50;;;16.70;;
11541;SDS011;5827;49.482;7.716;2022-08-19T05:59:22;18.50;;;16.57;;
11541;SDS011;5827;49.482;7.716;2022-08-19T06:01:26;16.27;;;14.77;;
11541;SDS011;5827;49.482;7.716;2022-08-19T06:03:27;16.60;;;15.07;;
11541;SDS011;5827;49.482;7.716;2022-08-19T06:05:29;15.93;;;14.53;;
11541;SDS011;5827;49.482;7.716;2022-08-19T06:07:31;15.00;;;13.60;;
11541;SDS011;5827;49.482;7.716;2022-08-19T06:09:33;14.83;;;13.43;;
11541;SDS011;5827;49.482;7.716;2022-08-19T06:11:36;15.10;;;13.70;;
11541;SDS011;5827;49.482;7.716;2022-08-19T06:13:40;14.47;;;13.00;;
11541;SDS011;5827;49.482;7.716;2022-08-19T06:15:41;15.33;;;13.87;;
11541;SDS011;5827;49.482;7.716;2022-08-19T06:17:45;14.80;;;13.40;;
11541;SDS011;5827;49.482;7.716;2022-08-19T06:19:47;14.57;;;13.13;;
11541;SDS011;5827;49.482;7.716;2022-08-19T06:21:50;14.73;;;13.40;;
11541;SDS011;5827;49.482;7.716;2022-08-19T06:23:53;14.60;;;13.23;;
11541;SDS011;5827;49.482;7.716;2022-08-19T06:25:56;15.13;;;13.20;;
11541;SDS011;5827;49.482;7.716;2022-08-19T06:27:57;14.90;;;13.33;;
11541;SDS011;5827;49.482;7.716;2022-08-19T06:29:59;14.77;;;13.30;;
11541;SDS011;5827;49.482;7.716;2022-08-19T06:32:02;14.50;;;13.20;;
11541;SDS011;5827;49.482;7.716;2022-08-19T06:34:05;15.30;;;13.90;;
11541;SDS011;5827;49.482;7.716;2022-08-19T06:36:07;14.30;;;13.00;;
11541;SDS011;5827;49.482;7.716;2022-08-19T06:38:16;14.93;;;13.53;;
11541;SDS011;5827;49.482;7.716;2022-08-19T06:40:18;14.77;;;13.27;;
11541;SDS011;5827;49.482;7.716;2022-08-19T06:42:20;14.47;;;13.07;;
11541;SDS011;5827;49.482;7.716;2022-08-19T06:44:23;14.87;;;13.37;;
11541;SDS011;5827;49.482;7.716;2022-08-19T06:46:27;14.87;;;13.37;;
11541;SDS011;5827;49.482;7.716;2022-08-19T06:48:28;14.07;;;12.83;;
11541;SDS011;5827;49.482;7.716;2022-08-19T06:50:32;14.67;;;13.27;;
11541;SDS011;5827;49.482;7.716;2022-08-19T06:52:34;14.57;;;13.27;;
11541;SDS011;5827;49.482;7.716;2022-08-19T06:54:36;14.33;;;12.90;;
11541;SDS011;5827;49.482;7.716;2022-08-19T06:56:38;14.00;;;12.80;;
11541;SDS011;5827;49.482;7.716;2022-08-19T06:58:40;14.97;;;12.90;;
11541;SDS011;5827;49.482;7.716;2022-08-19T07:00:42;14.13;;;12.60;;
11541;SDS011;5827;49.482;7.716;2022-08-19T07:02:43;13.83;;;12.43;;
11541;SDS011;5827;49.482;7.716;2022-08-19T07:04:45;13.83;;;11.70;;
11541;SDS011;5827;49.482;7.716;2022-08-19T07:06:49;12.63;;;11.33;;
11541;SDS011;5827;49.482;7.716;2022-08-19T07:08:51;13.03;;;11.13;;
11541;SDS011;5827;49.482;7.716;2022-08-19T07:10:53;12.67;;;11.33;;
11541;SDS011;5827;49.482;7.716;2022-08-19T07:12:55;12.30;;;10.93;;
11541;SDS011;5827;49.482;7.716;2022-08-19T07:14:56;12.40;;;11.40;;
11541;SDS011;5827;49.482;7.716;2022-08-19T07:16:58;13.03;;;11.80;;
11541;SDS011;5827;49.482;7.716;2022-08-19T07:19:00;15.27;;;11.60;;
11541;SDS011;5827;49.482;7.716;2022-08-19T07:21:02;13.23;;;11.93;;
11541;SDS011;5827;49.482;7.716;2022-08-19T07:23:06;12.70;;;11.60;;
11541;SDS011;5827;49.482;7.716;2022-08-19T07:25:09;11.80;;;10.70;;
11541;SDS011;5827;49.482;7.716;2022-08-19T07:27:13;13.50;;;12.10;;
11541;SDS011;5827;49.482;7.716;2022-08-19T07:29:16;11.63;;;10.63;;
11541;SDS011;5827;49.482;7.716;2022-08-19T07:31:20;15.03;;;11.60;;
11541;SDS011;5827;49.482;7.716;2022-08-19T07:33:23;12.80;;;11.60;;
11541;SDS011;5827;49.482;7.716;2022-08-19T07:35:26;15.13;;;12.33;;
11541;SDS011;5827;49.482;7.716;2022-08-19T07:37:28;12.27;;;11.17;;
11541;SDS011;5827;49.482;7.716;2022-08-19T07:39:32;12.67;;;11.37;;
11541;SDS011;5827;49.482;7.716;2022-08-19T07:41:36;12.97;;;11.67;;
11541;SDS011;5827;49.482;7.716;2022-08-19T07:43:39;13.80;;;12.40;;
11541;SDS011;5827;49.482;7.716;2022-08-19T07:45:43;13.10;;;11.80;;
11541;SDS011;5827;49.482;7.716;2022-08-19T07:47:44;13.67;;;12.27;;
11541;SDS011;5827;49.482;7.716;2022-08-19T07:49:46;12.03;;;10.60;;
11541;SDS011;5827;49.482;7.716;2022-08-19T07:51:49;13.43;;;12.10;;
11541;SDS011;5827;49.482;7.716;2022-08-19T07:53:53;14.47;;;13.07;;
11541;SDS011;5827;49.482;7.716;2022-08-19T07:55:56;13.80;;;12.37;;
11541;SDS011;5827;49.482;7.716;2022-08-19T07:58:03;13.70;;;12.30;;
11541;SDS011;5827;49.482;7.716;2022-08-19T08:00:06;15.00;;;13.70;;
11541;SDS011;5827;49.482;7.716;2022-08-19T08:02:08;13.80;;;12.40;;
11541;SDS011;5827;49.482;7.716;2022-08-19T08:04:10;12.97;;;11.77;;
11541;SDS011;5827;49.482;7.716;2022-08-19T08:06:30;12.97;;;11.67;;
11541;SDS011;5827;49.482;7.716;2022-08-19T08:08:49;12.33;;;11.20;;
11541;SDS011;5827;49.482;7.716;2022-08-19T08:11:09;12.60;;;11.40;;
11541;SDS011;5827;49.482;7.716;2022-08-19T08:13:12;13.57;;;11.60;;
11541;SDS011;5827;49.482;7.716;2022-08-19T08:15:14;13.40;;;11.90;;
11541;SDS011;5827;49.482;7.716;2022-08-19T08:17:19;13.63;;;12.33;;
11541;SDS011;5827;49.482;7.716;2022-08-19T08:19:22;15.43;;;11.57;;
11541;SDS011;5827;49.482;7.716;2022-08-19T08:21:26;17.13;;;14.53;;
11541;SDS011;5827;49.482;7.716;2022-08-19T08:23:27;15.20;;;13.80;;
11541;SDS011;5827;49.482;7.716;2022-08-19T08:25:30;16.77;;;15.07;;
11541;SDS011;5827;49.482;7.716;2022-08-19T08:27:36;15.07;;;13.50;;
11541;SDS011;5827;49.482;7.716;2022-08-19T08:29:39;17.43;;;15.53;;
11541;SDS011;5827;49.482;7.716;2022-08-19T08:31:41;21.23;;;19.03;;
11541;SDS011;5827;49.482;7.716;2022-08-19T08:33:45;18.60;;;16.90;;
11541;SDS011;5827;49.482;7.716;2022-08-19T08:35:47;16.73;;;15.23;;
11541;SDS011;5827;49.482;7.716;2022-08-19T08:37:50;16.17;;;14.67;;
11541;SDS011;5827;49.482;7.716;2022-08-19T08:39:53;17.90;;;16.10;;
11541;SDS011;5827;49.482;7.716;2022-08-19T08:41:56;16.37;;;14.77;;
11541;SDS011;5827;49.482;7.716;2022-08-19T08:44:04;17.83;;;16.20;;
11541;SDS011;5827;49.482;7.716;2022-08-19T08:46:08;16.70;;;15.00;;
11541;SDS011;5827;49.482;7.716;2022-08-19T08:48:15;17.40;;;15.63;;
11541;SDS011;5827;49.482;7.716;2022-08-19T08:50:23;15.90;;;14.27;;
11541;SDS011;5827;49.482;7.716;2022-08-19T08:52:31;15.00;;;13.70;;
11541;SDS011;5827;49.482;7.716;2022-08-19T08:54:38;14.60;;;13.33;;
11541;SDS011;5827;49.482;7.716;2022-08-19T08:56:43;13.47;;;12.23;;
11541;SDS011;5827;49.482;7.716;2022-08-19T08:58:49;13.50;;;12.37;;
11541;SDS011;5827;49.482;7.716;2022-08-19T09:00:58;15.03;;;13.53;;
11541;SDS011;5827;49.482;7.716;2022-08-19T09:03:00;15.10;;;13.70;;
11541;SDS011;5827;49.482;7.716;2022-08-19T09:05:03;14.47;;;13.07;;
11541;SDS011;5827;49.482;7.716;2022-08-19T09:07:20;16.70;;;15.00;;
11541;SDS011;5827;49.482;7.716;2022-08-19T09:09:32;13.77;;;12.57;;
11541;SDS011;5827;49.482;7.716;2022-08-19T09:11:39;13.07;;;11.97;;
11541;SDS011;5827;49.482;7.716;2022-08-19T09:14:02;13.30;;;11.93;;
11541;SDS011;5827;49.482;7.716;2022-08-19T09:16:13;11.00;;;10.00;;
11541;SDS011;5827;49.482;7.716;2022-08-19T09:18:17;9.33;;;8.43;;
11541;SDS011;5827;49.482;7.716;2022-08-19T09:20:19;11.07;;;10.10;;
11541;SDS011;5827;49.482;7.716;2022-08-19T09:22:22;10.40;;;9.40;;
11541;SDS011;5827;49.482;7.716;2022-08-19T09:24:26;10.73;;;9.73;;
11541;SDS011;5827;49.482;7.716;2022-08-19T09:26:28;11.47;;;10.37;;
11541;SDS011;5827;49.482;7.716;2022-08-19T09:28:31;11.47;;;10.40;;
11541;SDS011;5827;49.482;7.716;2022-08-19T09:30:34;10.70;;;9.80;;
11541;SDS011;5827;49.482;7.716;2022-08-19T09:32:41;10.70;;;9.70;;
11541;SDS011;5827;49.482;7.716;2022-08-19T09:34:43;8.80;;;8.03;;
11541;SDS011;5827;49.482;7.716;2022-08-19T09:36:45;9.30;;;8.37;;
11541;SDS011;5827;49.482;7.716;2022-08-19T09:38:47;10.00;;;7.60;;
11541;SDS011;5827;49.482;7.716;2022-08-19T09:40:48;8.90;;;8.10;;
11541;SDS011;5827;49.482;7.716;2022-08-19T09:42:50;8.07;;;7.30;;
11541;SDS011;5827;49.482;7.716;2022-08-19T09:44:52;10.37;;;7.70;;
11541;SDS011;5827;49.482;7.716;2022-08-19T09:46:54;8.43;;;7.63;;
11541;SDS011;5827;49.482;7.716;2022-08-19T09:48:58;7.93;;;7.23;;
11541;SDS011;5827;49.482;7.716;2022-08-19T09:51:04;8.83;;;7.93;;
11541;SDS011;5827;49.482;7.716;2022-08-19T09:53:08;8.30;;;7.50;;
11541;SDS011;5827;49.482;7.716;2022-08-19T09:55:09;8.23;;;7.53;;
11541;SDS011;5827;49.482;7.716;2022-08-19T09:57:12;7.90;;;7.30;;
11541;SDS011;5827;49.482;7.716;2022-08-19T09:59:13;8.27;;;7.27;;
11541;SDS011;5827;49.482;7.716;2022-08-19T10:01:16;7.33;;;6.63;;
11541;SDS011;5827;49.482;7.716;2022-08-19T10:03:19;7.77;;;6.93;;
11541;SDS011;5827;49.482;7.716;2022-08-19T10:05:22;8.47;;;7.67;;
11541;SDS011;5827;49.482;7.716;2022-08-19T10:07:41;6.97;;;6.37;;
11541;SDS011;5827;49.482;7.716;2022-08-19T10:09:42;7.60;;;6.90;;
11541;SDS011;5827;49.482;7.716;2022-08-19T10:11:44;7.43;;;6.70;;
11541;SDS011;5827;49.482;7.716;2022-08-19T10:13:48;7.37;;;6.47;;
11541;SDS011;5827;49.482;7.716;2022-08-19T10:15:50;7.30;;;6.70;;
11541;SDS011;5827;49.482;7.716;2022-08-19T10:17:52;7.03;;;6.47;;
11541;SDS011;5827;49.482;7.716;2022-08-19T10:19:53;5.73;;;5.23;;
11541;SDS011;5827;49.482;7.716;2022-08-19T10:21:56;7.03;;;5.40;;
11541;SDS011;5827;49.482;7.716;2022-08-19T10:23:58;6.00;;;5.40;;
11541;SDS011;5827;49.482;7.716;2022-08-19T10:26:02;5.43;;;5.03;;
11541;SDS011;5827;49.482;7.716;2022-08-19T10:28:05;5.87;;;5.00;;
11541;SDS011;5827;49.482;7.716;2022-08-19T10:30:07;6.55;;;5.10;;
11541;SDS011;5827;49.482;7.716;2022-08-19T10:32:10;5.63;;;5.13;;
11541;SDS011;5827;49.482;7.716;2022-08-19T10:34:11;5.88;;;5.45;;
11541;SDS011;5827;49.482;7.716;2022-08-19T10:36:14;5.55;;;5.00;;
11541;SDS011;5827;49.482;7.716;2022-08-19T10:38:19;4.20;;;3.90;;
11541;SDS011;5827;49.482;7.716;2022-08-19T10:40:21;4.70;;;4.30;;
11541;SDS011;5827;49.482;7.716;2022-08-19T10:42:23;4.30;;;3.90;;
11541;SDS011;5827;49.482;7.716;2022-08-19T10:44:25;5.07;;;4.60;;
11541;SDS011;5827;49.482;7.716;2022-08-19T10:46:29;4.75;;;4.35;;
11541;SDS011;5827;49.482;7.716;2022-08-19T10:48:37;5.63;;;4.60;;
11541;SDS011;5827;49.482;7.716;2022-08-19T10:50:39;5.47;;;4.22;;
11541;SDS011;5827;49.482;7.716;2022-08-19T10:52:57;4.22;;;3.83;;
11541;SDS011;5827;49.482;7.716;2022-08-19T10:55:05;4.30;;;4.00;;
11541;SDS011;5827;49.482;7.716;2022-08-19T10:57:25;4.10;;;3.80;;
11541;SDS011;5827;49.482;7.716;2022-08-19T10:59:31;4.10;;;3.80;;
11541;SDS011;5827;49.482;7.716;2022-08-19T11:01:33;4.10;;;3.45;;
11541;SDS011;5827;49.482;7.716;2022-08-19T11:03:35;4.60;;;4.13;;
11541;SDS011;5827;49.482;7.716;2022-08-19T11:05:38;4.23;;;3.90;;
11541;SDS011;5827;49.482;7.716;2022-08-19T11:07:41;3.92;;;3.63;;
11541;SDS011;5827;49.482;7.716;2022-08-19T11:09:44;3.80;;;3.60;;
11541;SDS011;5827;49.482;7.716;2022-08-19T11:11:47;4.40;;;4.00;;
11541;SDS011;5827;49.482;7.716;2022-08-19T11:13:49;4.00;;;3.70;;
11541;SDS011;5827;49.482;7.716;2022-08-19T11:15:58;4.00;;;3.70;;
11541;SDS011;5827;49.482;7.716;2022-08-19T11:18:01;5.90;;;4.43;;
11541;SDS011;5827;49.482;7.716;2022-08-19T11:20:03;3.90;;;3.60;;
11541;SDS011;5827;49.482;7.716;2022-08-19T11:22:07;4.72;;;4.00;;
11541;SDS011;5827;49.482;7.716;2022-08-19T11:24:10;3.85;;;3.55;;
11541;SDS011;5827;49.482;7.716;2022-08-19T11:26:13;4.28;;;3.88;;
11541;SDS011;5827;49.482;7.716;2022-08-19T11:28:16;3.95;;;3.65;;
11541;SDS011;5827;49.482;7.716;2022-08-19T11:30:18;4.00;;;3.55;;
11541;SDS011;5827;49.482;7.716;2022-08-19T11:32:19;3.97;;;3.67;;
11541;SDS011;5827;49.482;7.716;2022-08-19T11:34:22;4.20;;;3.80;;
11541;SDS011;5827;49.482;7.716;2022-08-19T11:36:27;4.43;;;4.03;;
11541;SDS011;5827;49.482;7.716;2022-08-19T11:38:29;4.57;;;4.07;;
11541;SDS011;5827;49.482;7.716;2022-08-19T11:40:31;4.38;;;4.00;;
11541;SDS011;5827;49.482;7.716;2022-08-19T11:42:33;4.45;;;4.15;;
11541;SDS011;5827;49.482;7.716;2022-08-19T11:44:53;4.72;;;4.40;;
11541;SDS011;5827;49.482;7.716;2022-08-19T11:46:55;4.75;;;4.43;;
11541;SDS011;5827;49.482;7.716;2022-08-19T11:48:57;4.03;;;3.75;;
11541;SDS011;5827;49.482;7.716;2022-08-19T11:51:02;4.10;;;3.80;;
11541;SDS011;5827;49.482;7.716;2022-08-19T11:53:06;4.18;;;3.80;;
11541;SDS011;5827;49.482;7.716;2022-08-19T11:55:08;4.07;;;3.78;;
11541;SDS011;5827;49.482;7.716;2022-08-19T11:57:10;4.28;;;3.90;;
11541;SDS011;5827;49.482;7.716;2022-08-19T11:59:11;4.70;;;4.22;;
11541;SDS011;5827;49.482;7.716;2022-08-19T12:01:15;4.30;;;4.00;;
11541;SDS011;5827;49.482;7.716;2022-08-19T12:03:18;4.50;;;4.10;;
11541;SDS011;5827;49.482;7.716;2022-08-19T12:05:20;4.30;;;3.88;;
11541;SDS011;5827;49.482;7.716;2022-08-19T12:07:21;4.38;;;3.97;;
11541;SDS011;5827;49.482;7.716;2022-08-19T12:09:24;4.47;;;4.05;;
11541;SDS011;5827;49.482;7.716;2022-08-19T12:11:26;4.43;;;4.03;;
11541;SDS011;5827;49.482;7.716;2022-08-19T12:13:28;4.88;;;4.47;;
11541;SDS011;5827;49.482;7.716;2022-08-19T12:15:31;4.00;;;3.70;;
11541;SDS011;5827;49.482;7.716;2022-08-19T12:17:38;4.57;;;4.18;;
11541;SDS011;5827;49.482;7.716;2022-08-19T12:19:40;4.50;;;4.10;;